Time;durP1;ratioP1;P1;durP2;ratioP2;P2;SDS_P1;SDS_P2;PMS_P1;PMS_P2;Temp;Humidity;BMP_temperature;BMP_pressure;BME280_temperature;BME280_humidity;BME280_pressure;Samples;Min_cycle;Max_cycle;Signal;HPM_P1;HPM_P2
2023/08/10 00:02:06;;;;;;;9.60;4.60;;;14.20;63.50;;;;;;5035687;28;46507;-67
2023/08/10 00:04:34;;;;;;;11.70;5.60;;;14.20;62.40;;;;;;5006153;28;47896;-67
2023/08/10 00:07:03;;;;;;;8.63;5.70;;;14.10;62.30;;;;;;5042416;28;46479;-67
2023/08/10 00:09:35;;;;;;;9.63;5.70;;;14.10;63.40;;;;;;5037113;28;46571;-67
2023/08/10 00:12:02;;;;;;;9.47;6.23;;;14.20;62.00;;;;;;5036457;28;46101;-68
2023/08/10 00:14:36;;;;;;;8.37;5.97;;;14.30;61.70;;;;;;5036776;28;47234;-67
2023/08/10 00:17:02;;;;;;;8.03;5.47;;;14.40;61.30;;;;;;5038999;28;46510;-67
2023/08/10 00:19:40;;;;;;;6.93;4.93;;;14.50;61.10;;;;;;5037365;28;46465;-67
2023/08/10 00:22:13;;;;;;;9.43;6.27;;;14.50;60.80;;;;;;5035657;28;46620;-68
2023/08/10 00:24:39;;;;;;;11.00;5.80;;;14.60;60.50;;;;;;5025663;28;46373;-67
2023/08/10 00:27:25;;;;;;;6.90;5.20;;;14.70;60.50;;;;;;5039977;28;46545;-67
2023/08/10 00:29:51;;;;;;;6.27;4.73;;;14.70;60.30;;;;;;5037693;28;46206;-67
2023/08/10 00:32:19;;;;;;;8.43;5.47;;;14.80;60.10;;;;;;5040667;28;46732;-67
2023/08/10 00:34:52;;;;;;;8.90;5.03;;;14.80;61.20;;;;;;5020543;28;47247;-68
2023/08/10 00:37:22;;;;;;;10.13;5.10;;;14.90;60.00;;;;;;5024511;28;46684;-67
2023/08/10 00:39:52;;;;;;;10.53;5.77;;;14.90;60.10;;;;;;5037575;28;46458;-68
2023/08/10 00:42:24;;;;;;;8.90;5.73;;;14.90;60.00;;;;;;5035674;28;46645;-67
2023/08/10 00:44:49;;;;;;;8.23;5.40;;;14.90;60.10;;;;;;5032065;28;46703;-65
2023/08/10 00:47:15;;;;;;;7.90;5.27;;;14.90;60.10;;;;;;5041444;28;46482;-66
2023/08/10 00:49:41;;;;;;;7.50;5.27;;;14.90;60.10;;;;;;5042732;28;46593;-66
2023/08/10 00:52:07;;;;;;;7.20;5.57;;;14.90;60.20;;;;;;5037750;28;46513;-66
2023/08/10 00:54:33;;;;;;;7.47;5.40;;;15.00;60.30;;;;;;5036045;28;46500;-66
2023/08/10 00:56:59;;;;;;;7.30;5.70;;;15.00;60.20;;;;;;5036787;28;46417;-64
2023/08/10 00:59:27;;;;;;;6.73;5.33;;;15.00;60.20;;;;;;5037612;28;46554;-65
2023/08/10 01:01:53;;;;;;;10.23;5.17;;;15.10;60.20;;;;;;5036371;28;46419;-66
2023/08/10 01:04:18;;;;;;;9.30;5.23;;;15.10;60.10;;;;;;5039252;28;46488;-66
2023/08/10 01:06:58;;;;;;;9.00;5.47;;;15.10;60.30;;;;;;5040671;28;46435;-66
2023/08/10 01:09:36;;;;;;;9.57;4.80;;;15.10;60.30;;;;;;5041532;28;46456;-66
2023/08/10 01:12:28;;;;;;;5.90;4.57;;;15.10;60.20;;;;;;5044349;28;46419;-66
2023/08/10 01:15:09;;;;;;;9.00;4.73;;;15.10;60.10;;;;;;5034680;28;46538;-65
2023/08/10 01:17:40;;;;;;;10.73;5.07;;;15.20;60.10;;;;;;5039770;28;45854;-65
2023/08/10 01:20:08;;;;;;;7.03;4.77;;;15.20;60.00;;;;;;5038447;28;45812;-66
2023/08/10 01:22:37;;;;;;;6.80;4.47;;;15.20;60.00;;;;;;5043206;28;46426;-66
2023/08/10 01:25:04;;;;;;;7.43;4.30;;;15.20;59.90;;;;;;5034852;28;47047;-65
2023/08/10 01:27:31;;;;;;;6.47;4.60;;;15.30;60.00;;;;;;5037405;28;46476;-66
2023/08/10 01:29:58;;;;;;;6.40;3.87;;;15.20;60.00;;;;;;5040024;28;46402;-66
2023/08/10 01:32:32;;;;;;;6.77;4.30;;;15.20;60.00;;;;;;5036951;28;45876;-65
2023/08/10 01:34:58;;;;;;;7.13;4.60;;;15.20;60.10;;;;;;5041803;28;46673;-66
2023/08/10 01:37:24;;;;;;;6.63;3.97;;;15.20;60.20;;;;;;5037191;28;46713;-66
2023/08/10 01:39:50;;;;;;;5.73;4.30;;;15.20;60.30;;;;;;5040394;28;46405;-65
2023/08/10 01:42:16;;;;;;;7.63;4.70;;;15.20;60.30;;;;;;5036410;28;46506;-66
2023/08/10 01:44:41;;;;;;;5.77;4.33;;;15.30;60.40;;;;;;5038366;28;47096;-66
2023/08/10 01:47:28;;;;;;;7.57;4.53;;;15.30;60.40;;;;;;5039939;28;46416;-66
2023/08/10 01:49:56;;;;;;;5.80;4.20;;;15.30;60.40;;;;;;5039050;28;46503;-65
2023/08/10 01:52:28;;;;;;;12.03;4.00;;;15.30;60.30;;;;;;5038414;28;45868;-65
2023/08/10 01:54:54;;;;;;;8.87;3.87;;;15.30;60.30;;;;;;5044139;28;46485;-65
2023/08/10 01:57:19;;;;;;;5.40;3.80;;;15.30;60.40;;;;;;5042183;28;46709;-66
2023/08/10 01:59:45;;;;;;;5.33;3.70;;;15.20;60.40;;;;;;5043095;28;46402;-64
2023/08/10 02:02:11;;;;;;;4.77;3.37;;;15.20;60.50;;;;;;5037629;28;46425;-65
2023/08/10 02:04:37;;;;;;;5.00;3.53;;;15.10;60.50;;;;;;5037015;28;46497;-65
2023/08/10 02:07:03;;;;;;;8.00;4.10;;;15.10;61.70;;;;;;5042235;28;46485;-65
2023/08/10 02:09:29;;;;;;;9.03;4.50;;;15.10;60.60;;;;;;5038575;28;46768;-66
2023/08/10 02:11:55;;;;;;;8.10;4.47;;;15.10;60.70;;;;;;5045489;28;46352;-65
2023/08/10 02:14:20;;;;;;;6.50;4.40;;;15.10;60.70;;;;;;5043001;28;46311;-65
2023/08/10 02:16:47;;;;;;;9.13;4.20;;;15.00;60.60;;;;;;5041131;28;46515;-65
2023/08/10 02:19:12;;;;;;;6.80;4.30;;;15.10;60.70;;;;;;5042958;28;46414;-69
2023/08/10 02:21:38;;;;;;;10.43;4.30;;;15.00;60.60;;;;;;5038781;28;46567;-69
2023/08/10 02:24:04;;;;;;;5.30;3.83;;;15.00;60.60;;;;;;5042536;28;46502;-69
2023/08/10 02:26:29;;;;;;;5.23;3.53;;;15.10;61.80;;;;;;5037059;28;46780;-70
2023/08/10 02:28:55;;;;;;;6.30;3.73;;;15.10;60.50;;;;;;5037770;28;46226;-71
2023/08/10 02:31:23;;;;;;;5.47;4.07;;;15.10;60.30;;;;;;5039408;28;46508;-71
2023/08/10 02:33:48;;;;;;;6.53;4.10;;;15.00;60.40;;;;;;5040182;28;46472;-71
2023/08/10 02:36:14;;;;;;;9.90;4.23;;;15.00;60.60;;;;;;5041926;28;46431;-69
2023/08/10 02:38:40;;;;;;;7.10;4.90;;;14.90;60.70;;;;;;5038792;28;46766;-69
2023/08/10 02:41:05;;;;;;;6.70;4.87;;;14.90;61.00;;;;;;5037142;28;46440;-70
2023/08/10 02:43:31;;;;;;;6.03;4.37;;;14.70;62.50;;;;;;5040949;28;47233;-70
2023/08/10 02:45:56;;;;;;;6.00;4.00;;;14.60;61.90;;;;;;5039449;28;46758;-70
2023/08/10 02:48:22;;;;;;;4.70;3.57;;;14.50;62.10;;;;;;5043109;28;46650;-70
2023/08/10 02:50:48;;;;;;;6.30;4.33;;;14.70;61.90;;;;;;5044508;28;46412;-70
2023/08/10 02:53:13;;;;;;;19.93;4.43;;;14.80;61.30;;;;;;5037497;28;46480;-72
2023/08/10 02:55:39;;;;;;;8.60;3.73;;;14.80;61.10;;;;;;5038206;28;46478;-69
2023/08/10 02:58:04;;;;;;;8.50;3.73;;;14.70;61.30;;;;;;5037178;28;46612;-69
2023/08/10 03:00:30;;;;;;;6.90;4.30;;;14.70;61.50;;;;;;5039549;28;46420;-70
2023/08/10 03:02:56;;;;;;;5.47;3.87;;;14.60;61.60;;;;;;5043344;28;46386;-69
2023/08/10 03:05:22;;;;;;;10.60;4.90;;;14.50;61.70;;;;;;5044180;28;46205;-70
2023/08/10 03:07:48;;;;;;;5.87;3.90;;;14.50;61.80;;;;;;5038742;28;46442;-69
2023/08/10 03:10:14;;;;;;;5.93;3.97;;;14.40;62.00;;;;;;5043207;28;46586;-68
2023/08/10 03:12:40;;;;;;;6.53;4.70;;;14.40;62.00;;;;;;5041670;28;46469;-69
2023/08/10 03:15:09;;;;;;;7.10;4.57;;;14.40;61.80;;;;;;5045474;28;46196;-68
2023/08/10 03:17:35;;;;;;;8.50;5.37;;;14.30;62.00;;;;;;5046072;28;46721;-69
2023/08/10 03:20:00;;;;;;;10.07;5.37;;;14.30;62.10;;;;;;5044693;28;46460;-67
2023/08/10 03:22:27;;;;;;;8.17;4.93;;;14.30;62.00;;;;;;5039433;28;46796;-68
2023/08/10 03:24:53;;;;;;;8.80;5.90;;;14.30;63.00;;;;;;5038261;28;46595;-70
2023/08/10 03:27:19;;;;;;;8.30;6.00;;;14.30;61.70;;;;;;5038607;28;46435;-69
2023/08/10 03:29:45;;;;;;;8.50;5.53;;;14.30;62.00;;;;;;5042008;28;46445;-70
2023/08/10 03:32:10;;;;;;;10.50;6.20;;;14.20;62.10;;;;;;5040135;28;46399;-69
2023/08/10 03:34:36;;;;;;;6.90;5.20;;;14.00;62.40;;;;;;5035615;28;46797;-68
2023/08/10 03:37:03;;;;;;;8.03;5.97;;;14.00;62.60;;;;;;5038039;28;46474;-70
2023/08/10 03:39:28;;;;;;;8.77;5.70;;;13.90;62.80;;;;;;5044507;28;46369;-69
2023/08/10 03:41:54;;;;;;;9.37;6.00;;;13.90;62.80;;;;;;5044663;28;46387;-69
2023/08/10 03:44:19;;;;;;;11.40;6.83;;;13.90;62.80;;;;;;5040126;28;46190;-69
2023/08/10 03:46:45;;;;;;;13.93;6.00;;;13.90;62.60;;;;;;5047162;28;46387;-68
2023/08/10 03:49:10;;;;;;;10.20;6.87;;;13.90;62.90;;;;;;5040878;28;46309;-67
2023/08/10 03:51:36;;;;;;;9.93;6.93;;;13.80;62.90;;;;;;5033363;28;46865;-69
2023/08/10 03:54:02;;;;;;;10.70;6.27;;;13.80;62.90;;;;;;5041437;28;46437;-69
2023/08/10 03:56:27;;;;;;;16.80;5.83;;;13.80;62.80;;;;;;5039712;28;46474;-69
2023/08/10 03:58:53;;;;;;;10.00;5.63;;;13.80;62.80;;;;;;5037999;28;46486;-69
2023/08/10 04:01:19;;;;;;;9.83;5.30;;;13.90;62.60;;;;;;5039875;28;47005;-70
2023/08/10 04:03:44;;;;;;;8.87;5.43;;;13.90;62.30;;;;;;5034467;28;46621;-69
2023/08/10 04:06:10;;;;;;;9.17;6.33;;;13.90;62.30;;;;;;5042537;28;46481;-68
2023/08/10 04:08:36;;;;;;;9.70;6.60;;;13.90;62.20;;;;;;5042694;28;46747;-69
2023/08/10 04:11:02;;;;;;;8.80;5.87;;;13.90;62.30;;;;;;5040478;28;46485;-69
2023/08/10 04:13:27;;;;;;;8.33;5.73;;;13.80;62.20;;;;;;5042211;28;46208;-67
2023/08/10 04:15:53;;;;;;;8.50;5.10;;;13.80;62.50;;;;;;5038577;28;46705;-68
2023/08/10 04:18:19;;;;;;;15.23;6.67;;;13.70;62.60;;;;;;5036675;28;46367;-68
2023/08/10 04:20:45;;;;;;;11.07;6.83;;;13.70;62.70;;;;;;5040982;28;47073;-69
2023/08/10 04:23:10;;;;;;;11.40;7.23;;;13.60;62.90;;;;;;5041790;28;46565;-68
2023/08/10 04:25:36;;;;;;;11.17;7.43;;;13.60;63.10;;;;;;5040673;28;45866;-70
2023/08/10 04:28:02;;;;;;;12.37;8.57;;;13.60;63.30;;;;;;5035975;28;45913;-70
2023/08/10 04:30:29;;;;;;;14.73;8.50;;;13.50;63.40;;;;;;5039493;28;48033;-68
2023/08/10 04:32:56;;;;;;;12.30;8.10;;;13.60;63.50;;;;;;5042898;28;46478;-69
2023/08/10 04:35:22;;;;;;;11.83;7.33;;;13.60;63.50;;;;;;5039303;28;46446;-69
2023/08/10 04:37:49;;;;;;;15.60;7.17;;;13.60;63.40;;;;;;5035733;28;46390;-69
2023/08/10 04:40:14;;;;;;;8.90;6.60;;;13.70;63.10;;;;;;5040017;28;47327;-69
2023/08/10 04:42:40;;;;;;;7.27;5.30;;;13.70;64.20;;;;;;5036077;28;46516;-69
2023/08/10 04:45:06;;;;;;;7.77;4.60;;;13.80;62.90;;;;;;5041315;28;46648;-68
2023/08/10 04:47:32;;;;;;;8.30;5.40;;;13.90;62.80;;;;;;5042342;28;46531;-68
2023/08/10 04:49:58;;;;;;;9.00;4.20;;;14.00;62.60;;;;;;5041454;28;46714;-69
2023/08/10 04:52:23;;;;;;;9.60;4.60;;;14.00;62.30;;;;;;5037899;28;45871;-69
2023/08/10 04:54:49;;;;;;;5.00;3.70;;;14.10;62.30;;;;;;5036345;28;45844;-69
2023/08/10 04:57:15;;;;;;;7.40;4.10;;;14.10;62.30;;;;;;5041342;28;46509;-68
2023/08/10 04:59:41;;;;;;;4.67;3.87;;;14.20;62.30;;;;;;5039803;28;46531;-69
2023/08/10 05:02:06;;;;;;;7.83;4.53;;;14.30;62.30;;;;;;5023555;28;46460;-66
2023/08/10 05:04:32;;;;;;;6.30;4.30;;;14.40;63.30;;;;;;5026061;28;46485;-67
2023/08/10 05:06:57;;;;;;;10.17;4.90;;;14.50;61.80;;;;;;5041752;28;46567;-67
2023/08/10 05:09:23;;;;;;;9.90;3.60;;;14.80;61.50;;;;;;5040901;28;46336;-67
2023/08/10 05:11:49;;;;;;;4.93;3.83;;;15.40;61.30;;;;;;5039892;28;46380;-67
2023/08/10 05:14:14;;;;;;;4.33;2.90;;;16.10;61.20;;;;;;5041154;28;46395;-67
2023/08/10 05:16:40;;;;;;;5.30;3.30;;;17.40;60.10;;;;;;5041602;28;46844;-67
2023/08/10 05:19:05;;;;;;;43.03;5.63;;;18.70;58.00;;;;;;5041277;28;47098;-67
2023/08/10 05:21:31;;;;;;;5.67;2.80;;;19.70;55.70;;;;;;5041128;28;46413;-67
2023/08/10 05:23:57;;;;;;;4.33;2.77;;;20.40;52.70;;;;;;5039839;28;46650;-67
2023/08/10 05:26:22;;;;;;;8.17;3.20;;;20.90;49.70;;;;;;5041306;28;46391;-67
2023/08/10 05:28:48;;;;;;;6.10;3.60;;;20.50;49.80;;;;;;5038321;28;47061;-68
2023/08/10 05:31:14;;;;;;;5.90;2.90;;;20.40;49.70;;;;;;5037787;28;46156;-67
2023/08/10 05:33:40;;;;;;;5.50;2.90;;;20.90;48.40;;;;;;5035273;28;46436;-68
2023/08/10 05:36:07;;;;;;;4.63;3.00;;;21.30;46.60;;;;;;5033882;28;46490;-68
2023/08/10 05:38:32;;;;;;;4.33;2.70;;;21.10;45.70;;;;;;5031621;28;46894;-67
2023/08/10 05:40:58;;;;;;;5.80;3.13;;;21.90;42.90;;;;;;5037671;28;46840;-67
2023/08/10 05:43:24;;;;;;;4.70;3.10;;;22.70;39.40;;;;;;5036756;28;46472;-67
2023/08/10 05:45:49;;;;;;;6.20;2.93;;;22.40;38.40;;;;;;5036105;28;46579;-67
2023/08/10 05:48:15;;;;;;;5.53;3.30;;;21.90;38.70;;;;;;5038575;28;46384;-67
2023/08/10 05:50:41;;;;;;;5.50;3.10;;;21.70;38.30;;;;;;5029349;28;46737;-67
2023/08/10 05:53:07;;;;;;;6.43;2.83;;;22.00;37.50;;;;;;5031399;28;46785;-67
2023/08/10 05:55:34;;;;;;;4.50;2.73;;;22.30;36.10;;;;;;5032246;28;46843;-67
2023/08/10 05:58:00;;;;;;;7.77;2.83;;;22.40;36.30;;;;;;5035486;28;47292;-67
2023/08/10 06:00:29;;;;;;;5.43;2.83;;;22.40;35.70;;;;;;5036808;28;46455;-66
2023/08/10 06:02:55;;;;;;;5.00;2.90;;;22.50;34.40;;;;;;5037246;28;46356;-64
2023/08/10 06:05:20;;;;;;;7.37;3.30;;;22.70;33.30;;;;;;5031137;28;46719;-65
2023/08/10 06:07:47;;;;;;;4.53;2.60;;;22.30;32.90;;;;;;5033854;28;47453;-66
2023/08/10 06:10:17;;;;;;;6.97;3.60;;;21.90;33.10;;;;;;5060920;22;47059;-66
2023/08/10 06:12:43;;;;;;;6.43;2.40;;;21.80;32.30;;;;;;5040578;28;46189;-66
2023/08/10 06:15:12;;;;;;;6.50;2.77;;;21.30;33.50;;;;;;5031961;28;46422;-66
2023/08/10 06:17:38;;;;;;;6.87;2.50;;;20.90;34.00;;;;;;5020998;28;46840;-66
2023/08/10 06:20:16;;;;;;;4.93;2.47;;;20.50;34.50;;;;;;5020579;28;46407;-66
2023/08/10 06:22:43;;;;;;;5.17;2.17;;;20.40;34.30;;;;;;5030852;28;46591;-67
2023/08/10 06:25:09;;;;;;;4.50;2.40;;;20.40;33.30;;;;;;5034417;28;46683;-66
2023/08/10 06:27:35;;;;;;;6.70;2.93;;;20.20;33.40;;;;;;5046295;28;47374;-67
2023/08/10 06:30:02;;;;;;;5.70;2.77;;;20.30;32.70;;;;;;5045762;28;45861;-67
2023/08/10 06:32:28;;;;;;;10.40;2.80;;;20.60;31.70;;;;;;5039836;28;46496;-68
2023/08/10 06:34:54;;;;;;;7.03;2.93;;;20.90;32.00;;;;;;5038534;28;46388;-67
2023/08/10 06:37:20;;;;;;;4.63;2.67;;;21.20;31.60;;;;;;5030763;28;46122;-66
2023/08/10 06:39:49;;;;;;;4.40;2.50;;;21.30;30.70;;;;;;5033141;28;46665;-66
2023/08/10 06:42:16;;;;;;;6.73;2.40;;;21.20;30.50;;;;;;5029418;28;45872;-66
2023/08/10 06:44:42;;;;;;;5.77;2.77;;;21.50;29.00;;;;;;5042372;28;46475;-66
2023/08/10 06:47:07;;;;;;;5.20;2.70;;;21.70;28.30;;;;;;5043294;28;46383;-66
2023/08/10 06:49:33;;;;;;;4.13;2.67;;;22.90;24.90;;;;;;5042528;28;46403;-66
2023/08/10 06:51:59;;;;;;;5.23;2.60;;;23.20;24.30;;;;;;5043455;28;46383;-66
2023/08/10 06:54:27;;;;;;;8.60;2.63;;;22.90;24.50;;;;;;5040039;28;46696;-66
2023/08/10 06:56:52;;;;;;;7.07;2.67;;;22.50;25.20;;;;;;5033348;28;47952;-66
2023/08/10 06:59:18;;;;;;;4.40;2.40;;;22.30;25.40;;;;;;5040891;28;46645;-66
2023/08/10 07:01:43;;;;;;;5.83;2.20;;;22.00;25.90;;;;;;5043205;28;46363;-66
2023/08/10 07:04:09;;;;;;;4.63;2.27;;;21.80;26.50;;;;;;5042653;28;46634;-67
2023/08/10 07:06:34;;;;;;;5.27;2.27;;;21.70;27.10;;;;;;5034000;28;46792;-69
2023/08/10 07:09:00;;;;;;;3.63;1.90;;;21.60;27.20;;;;;;5035542;28;46715;-69
2023/08/10 07:11:26;;;;;;;3.90;1.90;;;21.60;27.30;;;;;;5034363;28;46752;-70
2023/08/10 07:13:51;;;;;;;5.80;1.77;;;21.60;27.20;;;;;;5037910;28;46494;-69
2023/08/10 07:16:17;;;;;;;3.40;1.70;;;21.60;27.20;;;;;;5034799;28;46392;-71
2023/08/10 07:18:43;;;;;;;4.23;2.00;;;21.70;27.10;;;;;;5037539;28;46422;-69
2023/08/10 07:21:09;;;;;;;6.30;1.80;;;21.60;27.20;;;;;;5035650;28;46454;-70
2023/08/10 07:23:35;;;;;;;7.67;1.77;;;21.60;27.10;;;;;;5035056;28;46438;-70
2023/08/10 07:26:00;;;;;;;3.50;1.87;;;21.70;26.70;;;;;;5034008;28;46431;-70
2023/08/10 07:28:26;;;;;;;3.57;1.97;;;21.80;26.50;;;;;;5032159;28;46976;-69
2023/08/10 07:30:53;;;;;;;3.70;1.90;;;21.80;26.50;;;;;;5036537;28;46478;-71
2023/08/10 07:33:19;;;;;;;4.93;1.83;;;21.70;26.80;;;;;;5034680;28;46475;-70
2023/08/10 07:35:45;;;;;;;5.53;1.80;;;21.50;27.10;;;;;;5037888;28;46548;-71
2023/08/10 07:38:16;;;;;;;4.17;2.10;;;21.30;27.60;;;;;;5031819;28;46832;-70
2023/08/10 07:40:42;;;;;;;5.57;1.93;;;21.30;28.10;;;;;;5040354;28;46513;-67
2023/08/10 07:43:08;;;;;;;5.13;2.00;;;21.20;27.90;;;;;;5033349;28;46548;-67
2023/08/10 07:45:34;;;;;;;6.60;1.93;;;21.20;27.80;;;;;;5032992;28;47290;-67
2023/08/10 07:48:00;;;;;;;7.50;2.40;;;21.30;27.40;;;;;;5031418;28;46504;-67
2023/08/10 07:50:27;;;;;;;3.80;1.90;;;21.60;26.60;;;;;;5038030;28;46508;-67
2023/08/10 07:52:52;;;;;;;4.63;2.20;;;21.80;26.00;;;;;;5033243;28;46962;-67
2023/08/10 07:55:18;;;;;;;3.60;1.93;;;22.00;25.60;;;;;;5033298;28;47361;-67
2023/08/10 07:57:43;;;;;;;7.37;2.20;;;22.20;25.00;;;;;;5035110;28;46613;-66
2023/08/10 08:00:10;;;;;;;3.50;2.00;;;22.40;25.10;;;;;;5035431;28;46507;-67
2023/08/10 08:02:36;;;;;;;6.80;1.80;;;22.50;24.20;;;;;;5036860;28;46785;-67
2023/08/10 08:05:03;;;;;;;5.50;2.17;;;22.70;24.30;;;;;;5034074;28;46563;-67
2023/08/10 08:07:30;;;;;;;5.23;2.30;;;22.70;24.10;;;;;;5033771;28;46807;-66
2023/08/10 08:09:57;;;;;;;4.20;1.80;;;22.70;23.80;;;;;;5038167;28;45939;-67
2023/08/10 08:12:25;;;;;;;9.47;1.90;;;22.80;23.60;;;;;;5036004;28;46462;-66
2023/08/10 08:14:51;;;;;;;3.50;1.90;;;22.80;23.50;;;;;;5036411;28;46518;-66
2023/08/10 08:17:16;;;;;;;8.47;2.30;;;22.80;23.20;;;;;;5035743;28;46666;-66
2023/08/10 08:19:42;;;;;;;8.13;2.30;;;22.80;22.90;;;;;;5032743;28;46497;-67
2023/08/10 08:22:08;;;;;;;6.30;1.90;;;22.70;22.80;;;;;;5040730;28;46746;-65
2023/08/10 08:24:33;;;;;;;5.50;2.17;;;22.80;22.70;;;;;;5041069;28;47005;-66
2023/08/10 08:26:59;;;;;;;3.77;1.53;;;22.90;22.80;;;;;;5037371;28;46618;-66
2023/08/10 08:29:25;;;;;;;3.27;1.73;;;23.00;22.20;;;;;;5040088;28;46761;-67
2023/08/10 08:31:50;;;;;;;3.07;1.57;;;22.80;22.30;;;;;;5021725;28;46929;-66
2023/08/10 08:34:16;;;;;;;5.20;1.90;;;22.80;22.50;;;;;;5036310;28;46477;-66
2023/08/10 08:36:42;;;;;;;4.87;1.80;;;22.80;22.80;;;;;;5042016;28;45958;-65
2023/08/10 08:39:09;;;;;;;4.20;2.00;;;22.80;23.10;;;;;;5041469;28;46379;-66
2023/08/10 08:41:37;;;;;;;3.20;1.57;;;22.80;23.10;;;;;;5042407;28;46363;-66
2023/08/10 08:44:08;;;;;;;4.17;1.80;;;22.90;22.80;;;;;;5036399;28;46482;-70
2023/08/10 08:46:40;;;;;;;5.23;1.80;;;22.80;22.60;;;;;;5034919;28;46342;-69
2023/08/10 08:49:06;;;;;;;3.60;1.70;;;22.50;21.90;;;;;;5034761;28;46451;-72
2023/08/10 08:51:32;;;;;;;3.93;1.90;;;22.40;22.40;;;;;;5039373;28;46688;-69
2023/08/10 08:54:02;;;;;;;4.67;2.10;;;22.50;22.00;;;;;;5033480;28;46701;-71
2023/08/10 08:56:28;;;;;;;5.80;2.80;;;22.50;22.30;;;;;;5039071;28;45944;-65
2023/08/10 08:58:54;;;;;;;4.83;2.40;;;22.50;22.40;;;;;;5035934;28;46471;-67
2023/08/10 09:01:20;;;;;;;4.77;1.80;;;22.40;22.70;;;;;;5040079;28;46617;-67
2023/08/10 09:03:47;;;;;;;5.90;2.17;;;22.60;22.80;;;;;;5032073;28;46552;-67
2023/08/10 09:06:13;;;;;;;5.33;2.30;;;22.70;22.40;;;;;;5032556;28;46719;-65
2023/08/10 09:08:39;;;;;;;4.73;2.63;;;22.70;22.10;;;;;;5035078;28;46714;-67
2023/08/10 09:11:05;;;;;;;4.77;2.17;;;22.60;22.30;;;;;;5037316;28;46461;-66
2023/08/10 09:13:31;;;;;;;4.63;2.10;;;22.50;22.60;;;;;;5034022;28;47370;-66
2023/08/10 09:16:08;;;;;;;3.20;1.73;;;22.40;23.00;;;;;;5033300;28;46816;-67
2023/08/10 09:18:36;;;;;;;4.00;1.80;;;22.50;22.30;;;;;;5037332;28;46566;-66
2023/08/10 09:21:12;;;;;;;3.60;1.70;;;22.40;22.20;;;;;;5028276;28;46619;-67
2023/08/10 09:23:37;;;;;;;12.40;2.10;;;22.20;22.10;;;;;;5033650;28;46410;-67
2023/08/10 09:26:10;;;;;;;3.90;1.80;;;22.10;22.10;;;;;;5034280;28;46385;-68
2023/08/10 09:28:40;;;;;;;7.73;1.83;;;22.30;21.90;;;;;;5031491;28;46342;-67
2023/08/10 09:31:09;;;;;;;6.73;2.10;;;22.20;21.60;;;;;;5037449;28;46522;-67
2023/08/10 09:33:36;;;;;;;5.20;2.30;;;21.90;21.70;;;;;;5032048;28;46568;-66
2023/08/10 09:36:03;;;;;;;4.33;1.90;;;21.80;21.90;;;;;;5031812;28;46538;-66
2023/08/10 09:38:29;;;;;;;4.13;2.10;;;22.10;21.60;;;;;;5038527;28;46413;-67
2023/08/10 09:41:12;;;;;;;6.20;1.57;;;22.40;21.30;;;;;;5032689;28;46829;-66
2023/08/10 09:43:43;;;;;;;4.97;2.00;;;22.60;20.50;;;;;;5035094;28;47264;-65
2023/08/10 09:46:11;;;;;;;5.10;1.80;;;22.70;20.00;;;;;;5033953;28;46472;-66
2023/08/10 09:48:38;;;;;;;3.13;1.70;;;22.60;19.30;;;;;;5032999;28;46490;-67
2023/08/10 09:51:09;;;;;;;4.43;1.73;;;22.10;19.30;;;;;;5032897;28;46343;-66
2023/08/10 09:53:36;;;;;;;4.97;1.73;;;22.20;18.50;;;;;;5034487;28;47265;-64
2023/08/10 09:56:03;;;;;;;5.00;1.93;;;22.10;18.50;;;;;;5032540;28;46407;-66
2023/08/10 09:58:29;;;;;;;5.63;1.87;;;22.30;18.00;;;;;;5034895;28;46789;-66
2023/08/10 10:00:54;;;;;;;4.27;2.10;;;22.30;17.20;;;;;;5035758;28;46553;-66
2023/08/10 10:03:22;;;;;;;6.73;1.73;;;22.50;16.60;;;;;;5034394;28;46753;-66
2023/08/10 10:05:49;;;;;;;3.60;1.87;;;22.30;16.10;;;;;;5035143;28;46792;-66
2023/08/10 10:08:16;;;;;;;3.87;1.80;;;22.30;16.00;;;;;;5033402;28;46496;-67
2023/08/10 10:10:43;;;;;;;6.13;2.37;;;22.60;15.90;;;;;;5034469;28;46543;-67
2023/08/10 10:13:12;;;;;;;7.13;2.07;;;22.90;15.70;;;;;;5033666;28;46298;-67
2023/08/10 10:15:48;;;;;;;3.10;1.83;;;23.20;15.20;;;;;;5034591;28;46767;-67
2023/08/10 10:18:14;;;;;;;4.93;2.17;;;23.30;14.70;;;;;;5038280;28;46661;-67
2023/08/10 10:20:44;;;;;;;3.03;1.53;;;23.40;14.60;;;;;;5039584;28;45952;-67
2023/08/10 10:23:18;;;;;;;4.43;1.70;;;23.20;14.80;;;;;;5040344;28;48014;-67
2023/08/10 10:26:01;;;;;;;3.27;1.67;;;23.30;15.00;;;;;;5036071;28;45851;-66
2023/08/10 10:28:30;;;;;;;4.00;1.60;;;23.20;15.20;;;;;;5036929;28;46710;-67
2023/08/10 10:31:08;;;;;;;3.63;1.80;;;23.30;15.30;;;;;;5032105;28;46493;-67
2023/08/10 10:33:35;;;;;;;4.67;2.00;;;23.40;14.60;;;;;;5034890;28;46921;-71
2023/08/10 10:36:14;;;;;;;3.97;1.77;;;23.50;14.70;;;;;;5039450;28;46771;-70
2023/08/10 10:38:50;;;;;;;3.60;1.60;;;23.50;13.80;;;;;;5035540;28;46301;-70
2023/08/10 10:41:27;;;;;;;4.80;1.80;;;23.60;14.00;;;;;;5034675;28;46770;-71
2023/08/10 10:43:53;;;;;;;7.77;2.33;;;23.70;15.30;;;;;;5039046;28;46546;-71
2023/08/10 10:46:31;;;;;;;3.80;1.70;;;23.90;14.10;;;;;;5035645;28;46745;-70
2023/08/10 10:48:57;;;;;;;5.47;1.70;;;24.00;14.20;;;;;;5042028;28;46468;-70
2023/08/10 10:51:24;;;;;;;8.30;2.90;;;24.10;14.20;;;;;;5036282;28;46397;-71
2023/08/10 10:53:53;;;;;;;4.27;2.00;;;24.20;13.50;;;;;;5033441;28;46410;-71
2023/08/10 10:56:24;;;;;;;4.70;1.90;;;24.20;13.30;;;;;;5033148;28;46506;-70
2023/08/10 10:58:50;;;;;;;4.27;2.13;;;24.30;13.20;;;;;;5036679;28;46128;-71
2023/08/10 11:01:22;;;;;;;3.30;1.70;;;24.30;12.90;;;;;;5029751;28;46491;-71
2023/08/10 11:03:52;;;;;;;3.63;2.10;;;24.00;12.40;;;;;;5033687;28;46490;-70
2023/08/10 11:06:20;;;;;;;4.70;2.23;;;23.60;11.80;;;;;;5037220;28;46655;-70
2023/08/10 11:08:54;;;;;;;3.50;1.77;;;23.50;12.10;;;;;;5037984;28;46434;-71
2023/08/10 11:11:24;;;;;;;5.27;2.03;;;23.60;11.40;;;;;;5034014;28;47405;-70
2023/08/10 11:13:51;;;;;;;9.00;2.10;;;23.70;11.20;;;;;;5038005;28;46418;-70
2023/08/10 11:16:17;;;;;;;3.80;2.27;;;23.70;11.20;;;;;;5040253;28;46721;-70
2023/08/10 11:18:45;;;;;;;3.90;1.90;;;23.80;11.70;;;;;;5037142;28;46461;-69
2023/08/10 11:21:12;;;;;;;3.70;2.07;;;23.80;11.90;;;;;;5045920;28;46485;-65
2023/08/10 11:23:39;;;;;;;5.07;2.13;;;23.80;11.60;;;;;;5040128;28;46141;-65
2023/08/10 11:26:05;;;;;;;8.60;1.80;;;23.70;11.40;;;;;;5041462;28;46387;-65
2023/08/10 11:28:31;;;;;;;4.47;2.00;;;23.50;11.50;;;;;;5041198;28;46399;-65
2023/08/10 11:31:01;;;;;;;5.93;2.00;;;23.30;11.60;;;;;;5038712;28;46470;-64
2023/08/10 11:33:27;;;;;;;4.53;2.10;;;23.10;11.00;;;;;;5039582;28;47088;-66
2023/08/10 11:35:53;;;;;;;4.00;2.13;;;23.20;11.30;;;;;;5034673;28;46399;-67
2023/08/10 11:38:19;;;;;;;68.80;23.97;;;23.40;11.10;;;;;;5044042;28;46444;-67
2023/08/10 11:40:45;;;;;;;94.47;35.23;;;23.60;10.60;;;;;;5037073;28;46659;-65
2023/08/10 11:43:14;;;;;;;51.33;19.70;;;23.70;10.60;;;;;;5044246;28;46445;-65
2023/08/10 11:45:41;;;;;;;8.70;2.87;;;23.80;10.60;;;;;;5041662;28;46553;-65
2023/08/10 11:48:11;;;;;;;5.37;2.03;;;23.80;10.70;;;;;;5037545;28;46453;-69
2023/08/10 11:50:38;;;;;;;6.90;2.27;;;23.90;10.10;;;;;;5023813;28;46742;-70
2023/08/10 11:53:11;;;;;;;4.50;2.03;;;24.20;10.10;;;;;;5035638;28;47369;-69
2023/08/10 11:55:48;;;;;;;3.17;1.70;;;24.40;9.60;;;;;;5019364;28;45771;-69
2023/08/10 11:58:14;;;;;;;4.60;2.50;;;24.50;8.10;;;;;;5031730;28;46573;-71
2023/08/10 12:00:41;;;;;;;6.30;2.63;;;24.60;7.90;;;;;;5036516;28;46058;-69
2023/08/10 12:03:26;;;;;;;5.60;2.47;;;24.60;8.50;;;;;;5034873;28;46951;-69
2023/08/10 12:05:59;;;;;;;7.73;2.70;;;24.80;8.30;;;;;;5031004;28;46394;-67
2023/08/10 12:08:29;;;;;;;7.33;3.23;;;24.90;8.70;;;;;;5035201;28;46561;-68
2023/08/10 12:11:05;;;;;;;6.47;2.40;;;24.80;8.80;;;;;;5032046;28;46432;-72
2023/08/10 12:13:32;;;;;;;6.00;2.87;;;24.80;9.80;;;;;;5037230;28;47308;-69
2023/08/10 12:16:02;;;;;;;3.70;2.00;;;24.70;9.00;;;;;;5031781;28;46733;-67
2023/08/10 12:18:28;;;;;;;7.13;2.03;;;24.80;8.90;;;;;;5041935;28;46466;-67
2023/08/10 12:20:54;;;;;;;4.50;2.60;;;24.70;8.80;;;;;;5037917;28;46228;-67
2023/08/10 12:23:21;;;;;;;4.87;2.57;;;24.70;8.10;;;;;;5037664;28;46120;-67
2023/08/10 12:25:48;;;;;;;4.53;2.10;;;24.70;8.80;;;;;;5036598;28;46420;-67
2023/08/10 12:28:16;;;;;;;4.57;1.90;;;24.60;8.90;;;;;;5040352;28;46395;-67
2023/08/10 12:30:42;;;;;;;4.53;2.00;;;24.60;9.10;;;;;;5033669;28;46434;-66
2023/08/10 12:33:11;;;;;;;4.93;1.90;;;24.60;9.40;;;;;;5042851;28;46633;-66
2023/08/10 12:35:38;;;;;;;5.80;1.97;;;24.50;9.20;;;;;;5036224;28;45847;-66
2023/08/10 12:38:05;;;;;;;8.50;2.00;;;24.30;9.40;;;;;;5035447;28;46576;-68
2023/08/10 12:40:32;;;;;;;4.80;2.17;;;24.10;9.20;;;;;;5033153;28;46731;-65
2023/08/10 12:43:01;;;;;;;4.30;2.17;;;24.20;9.10;;;;;;5040232;28;46849;-68
2023/08/10 12:45:27;;;;;;;3.93;2.00;;;24.20;9.10;;;;;;5037707;28;46497;-67
2023/08/10 12:47:54;;;;;;;4.47;2.27;;;24.20;9.40;;;;;;5042621;28;46506;-67